createdAt,value
2023-01-13T00:07:45.262Z,10
2023-01-13T00:17:46.079Z,9.7
2023-01-13T00:27:46.957Z,9.7
2023-01-13T00:37:47.465Z,9.7
2023-01-13T00:57:49.190Z,9.5
2023-01-13T01:07:49.848Z,9.5
2023-01-13T01:17:50.732Z,9.5
2023-01-13T01:27:50.910Z,9.5
2023-01-13T01:57:52.569Z,9.6
2023-01-13T02:07:53.265Z,9.4
2023-01-13T02:17:53.444Z,9.1
2023-01-13T02:27:54.164Z,9.1
2023-01-13T02:37:54.284Z,9.1
2023-01-13T02:47:55.226Z,9.1
2023-01-13T02:57:55.963Z,9.1
2023-01-13T03:17:57.470Z,9
2023-01-13T03:27:58.037Z,9
2023-01-13T03:58:00.589Z,8.4
2023-01-13T04:08:01.339Z,8.4
2023-01-13T04:18:02.433Z,8.5
2023-01-13T04:28:03.376Z,8.6
2023-01-13T04:38:04.314Z,8.7
2023-01-13T04:48:05.196Z,8.8
2023-01-13T04:58:05.326Z,8.8
2023-01-13T05:08:05.679Z,8.9
2023-01-13T05:18:06.276Z,8.7
2023-01-13T05:28:07.194Z,8.6
2023-01-13T05:58:09.323Z,8.3
2023-01-13T06:08:10.294Z,8.3
2023-01-13T06:18:11.174Z,8.5
2023-01-13T06:28:12.197Z,8.5
2023-01-13T06:48:13.389Z,8.4
2023-01-13T06:58:13.808Z,8.4
2023-01-13T07:28:16.024Z,8.3
2023-01-13T07:38:16.178Z,8.3
2023-01-13T07:58:17.804Z,8.3
2023-01-13T08:08:18.445Z,8.3
2023-01-13T08:18:19.130Z,8.4
2023-01-13T08:28:19.575Z,8.4
2023-01-13T08:48:20.921Z,8.5
2023-01-13T08:58:21.011Z,8.5
2023-01-13T09:08:21.865Z,8.5
2023-01-13T09:28:23.618Z,8.7
2023-01-13T09:48:24.321Z,8.9
2023-01-13T10:08:25.593Z,9
2023-01-13T10:18:26.644Z,9
2023-01-13T10:38:27.016Z,9.2
2023-01-13T10:48:27.659Z,9.2
2023-01-13T11:38:29.528Z,8.8
2023-01-13T11:58:31.925Z,8.2
2023-01-13T12:28:32.768Z,7.8
2023-01-13T12:58:35.716Z,8.3
2023-01-13T13:08:36.580Z,7.7
2023-01-13T13:28:37.679Z,7
2023-01-13T13:38:38.104Z,6.7
2023-01-13T13:48:39.192Z,6.7
2023-01-13T13:58:39.484Z,6.8
2023-01-13T14:08:40.261Z,6.8
2023-01-13T14:18:40.766Z,7
2023-01-13T14:28:41.543Z,7.2
2023-01-13T14:48:42.232Z,7.3
2023-01-13T14:58:43.020Z,7.2
2023-01-13T15:08:43.228Z,7.2
2023-01-13T15:28:44.706Z,7.2
2023-01-13T15:38:45.452Z,7.2
2023-01-13T15:48:45.706Z,7.1
2023-01-13T15:58:46.137Z,7.1
2023-01-13T16:08:46.572Z,7.2
2023-01-13T16:18:47.039Z,7.2
2023-01-13T16:28:47.214Z,7.3
2023-01-13T17:08:49.247Z,7.7
2023-01-13T17:18:50.244Z,7.8
2023-01-13T17:28:51.059Z,7.8
2023-01-13T17:38:52.029Z,7.8
2023-01-13T17:58:52.739Z,7.9
2023-01-13T18:08:53.858Z,7.9
2023-01-13T18:18:54.061Z,7.8
2023-01-13T18:38:54.992Z,7.7
2023-01-13T18:48:55.700Z,7.7
2023-01-13T18:58:56.279Z,7.8
2023-01-13T19:08:57.321Z,7.8
2023-01-13T19:18:58.222Z,7.9
2023-01-13T19:38:59.993Z,8.1
2023-01-13T19:49:00.857Z,8
2023-01-13T19:59:01.630Z,7.9
2023-01-13T20:09:02.313Z,7.7
2023-01-13T20:19:03.244Z,7.6
2023-01-13T20:39:04.143Z,7.4
2023-01-13T20:49:04.994Z,7.4
2023-01-13T20:59:05.690Z,7.2
2023-01-13T21:09:06.231Z,6.8
2023-01-13T21:19:07.014Z,6.5
2023-01-13T21:29:07.589Z,6.7
2023-01-13T21:39:07.698Z,6.8
2023-01-13T21:49:07.821Z,6.8
2023-01-13T21:59:08.012Z,6.9
2023-01-13T22:09:08.473Z,6.8
2023-01-13T22:19:08.809Z,6.8
2023-01-13T22:29:09.411Z,6.9
2023-01-13T22:39:10.399Z,6.9
2023-01-13T22:59:11.676Z,7.2
2023-01-13T23:09:12.088Z,7.2
2023-01-13T23:19:12.922Z,7.3
2023-01-13T23:49:14.777Z,7.5
2023-01-13T23:59:15.825Z,7.6
